sensor_id;sensor_type;location;lat;lon;timestamp;P1;durP1;ratioP1;P2;durP2;ratioP2
11531;SDS011;5822;51.000;5.874;2022-12-18T00:02:12;40.50;;;37.53;;
11531;SDS011;5822;51.000;5.874;2022-12-18T00:04:38;33.78;;;30.98;;
11531;SDS011;5822;51.000;5.874;2022-12-18T00:07:04;31.95;;;29.45;;
11531;SDS011;5822;51.000;5.874;2022-12-18T00:09:29;34.23;;;31.53;;
11531;SDS011;5822;51.000;5.874;2022-12-18T00:11:55;34.60;;;32.00;;
11531;SDS011;5822;51.000;5.874;2022-12-18T00:14:21;38.90;;;36.30;;
11531;SDS011;5822;51.000;5.874;2022-12-18T00:16:46;41.55;;;38.75;;
11531;SDS011;5822;51.000;5.874;2022-12-18T00:19:12;43.10;;;40.30;;
11531;SDS011;5822;51.000;5.874;2022-12-18T00:21:39;44.92;;;42.00;;
11531;SDS011;5822;51.000;5.874;2022-12-18T00:24:05;47.90;;;44.67;;
11531;SDS011;5822;51.000;5.874;2022-12-18T00:26:32;55.65;;;51.95;;
11531;SDS011;5822;51.000;5.874;2022-12-18T00:28:59;69.93;;;65.73;;
11531;SDS011;5822;51.000;5.874;2022-12-18T00:31:30;90.47;;;85.03;;
11531;SDS011;5822;51.000;5.874;2022-12-18T00:33:56;62.55;;;58.65;;
11531;SDS011;5822;51.000;5.874;2022-12-18T00:36:23;63.77;;;59.80;;
11531;SDS011;5822;51.000;5.874;2022-12-18T00:38:51;61.88;;;58.17;;
11531;SDS011;5822;51.000;5.874;2022-12-18T00:41:19;54.08;;;50.78;;
11531;SDS011;5822;51.000;5.874;2022-12-18T00:44:03;51.83;;;48.63;;
11531;SDS011;5822;51.000;5.874;2022-12-18T00:46:31;49.67;;;46.65;;
11531;SDS011;5822;51.000;5.874;2022-12-18T00:48:57;49.00;;;45.90;;
11531;SDS011;5822;51.000;5.874;2022-12-18T00:51:23;47.28;;;44.28;;
11531;SDS011;5822;51.000;5.874;2022-12-18T00:53:49;45.55;;;42.65;;
11531;SDS011;5822;51.000;5.874;2022-12-18T00:56:15;48.05;;;44.85;;
11531;SDS011;5822;51.000;5.874;2022-12-18T00:58:41;35.97;;;33.35;;
11531;SDS011;5822;51.000;5.874;2022-12-18T01:01:06;37.37;;;34.57;;
11531;SDS011;5822;51.000;5.874;2022-12-18T01:03:32;36.70;;;34.00;;
11531;SDS011;5822;51.000;5.874;2022-12-18T01:05:58;41.92;;;38.92;;
11531;SDS011;5822;51.000;5.874;2022-12-18T01:08:23;44.60;;;41.63;;
11531;SDS011;5822;51.000;5.874;2022-12-18T01:10:49;47.17;;;44.22;;
11531;SDS011;5822;51.000;5.874;2022-12-18T01:13:15;50.57;;;47.27;;
11531;SDS011;5822;51.000;5.874;2022-12-18T01:15:47;38.75;;;35.83;;
11531;SDS011;5822;51.000;5.874;2022-12-18T01:18:14;35.33;;;32.67;;
11531;SDS011;5822;51.000;5.874;2022-12-18T01:20:39;35.42;;;32.92;;
11531;SDS011;5822;51.000;5.874;2022-12-18T01:23:05;35.03;;;32.60;;
11531;SDS011;5822;51.000;5.874;2022-12-18T01:25:30;44.20;;;41.50;;
11531;SDS011;5822;51.000;5.874;2022-12-18T01:27:56;46.70;;;43.80;;
11531;SDS011;5822;51.000;5.874;2022-12-18T01:30:22;47.35;;;44.38;;
11531;SDS011;5822;51.000;5.874;2022-12-18T01:32:48;37.92;;;35.42;;
11531;SDS011;5822;51.000;5.874;2022-12-18T01:35:14;39.78;;;37.17;;
11531;SDS011;5822;51.000;5.874;2022-12-18T01:37:39;39.90;;;37.30;;
11531;SDS011;5822;51.000;5.874;2022-12-18T01:40:05;41.65;;;39.15;;
11531;SDS011;5822;51.000;5.874;2022-12-18T01:42:31;51.72;;;48.63;;
11531;SDS011;5822;51.000;5.874;2022-12-18T01:52:46;48.72;;;45.90;;
11531;SDS011;5822;51.000;5.874;2022-12-18T01:55:15;45.10;;;42.40;;
11531;SDS011;5822;51.000;5.874;2022-12-18T01:57:44;33.20;;;30.90;;
11531;SDS011;5822;51.000;5.874;2022-12-18T02:00:15;33.13;;;30.67;;
11531;SDS011;5822;51.000;5.874;2022-12-18T02:02:44;33.10;;;30.80;;
11531;SDS011;5822;51.000;5.874;2022-12-18T02:05:11;37.85;;;35.45;;
11531;SDS011;5822;51.000;5.874;2022-12-18T02:18:13;45.92;;;43.22;;
11531;SDS011;5822;51.000;5.874;2022-12-18T02:20:47;50.17;;;47.37;;
11531;SDS011;5822;51.000;5.874;2022-12-18T02:26:28;34.25;;;31.95;;
11531;SDS011;5822;51.000;5.874;2022-12-18T02:31:43;42.85;;;40.28;;
11531;SDS011;5822;51.000;5.874;2022-12-18T02:34:12;47.78;;;44.97;;
11531;SDS011;5822;51.000;5.874;2022-12-18T02:36:40;47.95;;;45.17;;
11531;SDS011;5822;51.000;5.874;2022-12-18T02:39:09;48.63;;;45.92;;
11531;SDS011;5822;51.000;5.874;2022-12-18T02:41:36;49.70;;;46.90;;
11531;SDS011;5822;51.000;5.874;2022-12-18T02:44:07;52.55;;;49.65;;
11531;SDS011;5822;51.000;5.874;2022-12-18T02:46:36;50.53;;;47.70;;
11531;SDS011;5822;51.000;5.874;2022-12-18T02:49:20;38.75;;;36.35;;
11531;SDS011;5822;51.000;5.874;2022-12-18T02:59:58;40.05;;;37.67;;
11531;SDS011;5822;51.000;5.874;2022-12-18T03:02:46;46.63;;;43.92;;
11531;SDS011;5822;51.000;5.874;2022-12-18T03:05:15;51.60;;;48.83;;
11531;SDS011;5822;51.000;5.874;2022-12-18T03:10:16;48.55;;;45.85;;
11531;SDS011;5822;51.000;5.874;2022-12-18T03:12:47;45.85;;;43.25;;
11531;SDS011;5822;51.000;5.874;2022-12-18T03:15:54;46.95;;;44.22;;
11531;SDS011;5822;51.000;5.874;2022-12-18T03:21:17;43.30;;;40.83;;
11531;SDS011;5822;51.000;5.874;2022-12-18T03:23:48;36.97;;;34.73;;
11531;SDS011;5822;51.000;5.874;2022-12-18T03:26:16;27.55;;;25.55;;
11531;SDS011;5822;51.000;5.874;2022-12-18T03:28:47;28.65;;;26.60;;
11531;SDS011;5822;51.000;5.874;2022-12-18T03:31:16;28.98;;;26.98;;
11531;SDS011;5822;51.000;5.874;2022-12-18T03:33:51;33.27;;;31.17;;
11531;SDS011;5822;51.000;5.874;2022-12-18T03:36:16;38.40;;;36.10;;
11531;SDS011;5822;51.000;5.874;2022-12-18T03:38:42;40.97;;;38.67;;
11531;SDS011;5822;51.000;5.874;2022-12-18T03:41:15;42.83;;;40.42;;
11531;SDS011;5822;51.000;5.874;2022-12-18T03:49:25;44.35;;;41.85;;
11531;SDS011;5822;51.000;5.874;2022-12-18T03:52:11;43.17;;;40.78;;
11531;SDS011;5822;51.000;5.874;2022-12-18T03:54:51;26.40;;;24.50;;
11531;SDS011;5822;51.000;5.874;2022-12-18T03:57:20;26.88;;;24.88;;
11531;SDS011;5822;51.000;5.874;2022-12-18T03:59:50;29.48;;;27.48;;
11531;SDS011;5822;51.000;5.874;2022-12-18T04:02:21;29.03;;;27.03;;
11531;SDS011;5822;51.000;5.874;2022-12-18T04:04:48;29.25;;;27.25;;
11531;SDS011;5822;51.000;5.874;2022-12-18T04:07:21;34.00;;;31.95;;
11531;SDS011;5822;51.000;5.874;2022-12-18T04:09:48;42.28;;;39.88;;
11531;SDS011;5822;51.000;5.874;2022-12-18T04:12:15;39.70;;;37.50;;
11531;SDS011;5822;51.000;5.874;2022-12-18T04:14:41;37.92;;;35.72;;
11531;SDS011;5822;51.000;5.874;2022-12-18T04:17:07;39.47;;;37.17;;
11531;SDS011;5822;51.000;5.874;2022-12-18T04:19:32;37.17;;;35.07;;
11531;SDS011;5822;51.000;5.874;2022-12-18T04:21:58;47.42;;;44.88;;
11531;SDS011;5822;51.000;5.874;2022-12-18T04:24:24;52.80;;;50.10;;
11531;SDS011;5822;51.000;5.874;2022-12-18T04:26:49;58.87;;;55.80;;
11531;SDS011;5822;51.000;5.874;2022-12-18T04:29:15;48.67;;;46.08;;
11531;SDS011;5822;51.000;5.874;2022-12-18T04:31:40;34.83;;;32.70;;
11531;SDS011;5822;51.000;5.874;2022-12-18T04:34:06;33.97;;;31.83;;
11531;SDS011;5822;51.000;5.874;2022-12-18T04:36:32;31.17;;;29.17;;
11531;SDS011;5822;51.000;5.874;2022-12-18T04:38:57;28.52;;;26.63;;
11531;SDS011;5822;51.000;5.874;2022-12-18T04:41:23;32.77;;;30.77;;
11531;SDS011;5822;51.000;5.874;2022-12-18T04:43:49;31.77;;;29.77;;
11531;SDS011;5822;51.000;5.874;2022-12-18T04:46:14;37.00;;;34.80;;
11531;SDS011;5822;51.000;5.874;2022-12-18T04:48:40;44.50;;;42.08;;
11531;SDS011;5822;51.000;5.874;2022-12-18T04:51:06;47.87;;;45.37;;
11531;SDS011;5822;51.000;5.874;2022-12-18T04:53:32;51.40;;;48.70;;
11531;SDS011;5822;51.000;5.874;2022-12-18T04:56:02;51.83;;;49.10;;
11531;SDS011;5822;51.000;5.874;2022-12-18T04:58:32;49.85;;;47.25;;
11531;SDS011;5822;51.000;5.874;2022-12-18T05:00:58;52.73;;;50.03;;
11531;SDS011;5822;51.000;5.874;2022-12-18T05:03:23;57.40;;;54.60;;
11531;SDS011;5822;51.000;5.874;2022-12-18T05:05:50;62.30;;;59.20;;
11531;SDS011;5822;51.000;5.874;2022-12-18T05:08:16;57.05;;;54.25;;
11531;SDS011;5822;51.000;5.874;2022-12-18T05:10:42;55.97;;;53.28;;
11531;SDS011;5822;51.000;5.874;2022-12-18T05:13:07;53.87;;;51.17;;
11531;SDS011;5822;51.000;5.874;2022-12-18T05:15:33;48.97;;;46.33;;
11531;SDS011;5822;51.000;5.874;2022-12-18T05:17:59;53.08;;;50.28;;
11531;SDS011;5822;51.000;5.874;2022-12-18T05:20:26;42.78;;;40.28;;
11531;SDS011;5822;51.000;5.874;2022-12-18T05:22:52;46.03;;;43.53;;
11531;SDS011;5822;51.000;5.874;2022-12-18T05:25:18;56.72;;;53.83;;
11531;SDS011;5822;51.000;5.874;2022-12-18T05:27:44;44.15;;;41.75;;
11531;SDS011;5822;51.000;5.874;2022-12-18T05:30:11;55.80;;;53.00;;
11531;SDS011;5822;51.000;5.874;2022-12-18T05:32:37;62.17;;;58.97;;
11531;SDS011;5822;51.000;5.874;2022-12-18T05:35:04;60.35;;;57.35;;
11531;SDS011;5822;51.000;5.874;2022-12-18T05:37:30;73.20;;;69.60;;
11531;SDS011;5822;51.000;5.874;2022-12-18T05:39:56;74.03;;;70.40;;
11531;SDS011;5822;51.000;5.874;2022-12-18T05:42:22;58.57;;;55.67;;
11531;SDS011;5822;51.000;5.874;2022-12-18T05:44:47;55.50;;;52.70;;
11531;SDS011;5822;51.000;5.874;2022-12-18T05:47:13;55.60;;;52.77;;
11531;SDS011;5822;51.000;5.874;2022-12-18T05:49:39;53.63;;;50.93;;
11531;SDS011;5822;51.000;5.874;2022-12-18T05:52:04;55.10;;;52.30;;
11531;SDS011;5822;51.000;5.874;2022-12-18T05:54:30;58.33;;;55.22;;
11531;SDS011;5822;51.000;5.874;2022-12-18T05:56:56;59.20;;;56.20;;
11531;SDS011;5822;51.000;5.874;2022-12-18T05:59:22;59.83;;;56.75;;
11531;SDS011;5822;51.000;5.874;2022-12-18T06:01:47;65.70;;;62.30;;
11531;SDS011;5822;51.000;5.874;2022-12-18T06:04:13;71.35;;;67.68;;
11531;SDS011;5822;51.000;5.874;2022-12-18T06:06:39;41.97;;;39.58;;
11531;SDS011;5822;51.000;5.874;2022-12-18T06:09:05;44.58;;;42.00;;
11531;SDS011;5822;51.000;5.874;2022-12-18T06:11:33;48.22;;;45.63;;
11531;SDS011;5822;51.000;5.874;2022-12-18T06:14:00;52.08;;;49.17;;
11531;SDS011;5822;51.000;5.874;2022-12-18T06:16:30;71.68;;;68.18;;
11531;SDS011;5822;51.000;5.874;2022-12-18T06:18:56;73.95;;;70.25;;
11531;SDS011;5822;51.000;5.874;2022-12-18T06:21:23;76.05;;;72.25;;
11531;SDS011;5822;51.000;5.874;2022-12-18T06:23:48;75.72;;;71.82;;
11531;SDS011;5822;51.000;5.874;2022-12-18T06:26:14;74.72;;;70.93;;
11531;SDS011;5822;51.000;5.874;2022-12-18T06:28:40;74.17;;;70.43;;
11531;SDS011;5822;51.000;5.874;2022-12-18T06:31:06;47.78;;;44.97;;
11531;SDS011;5822;51.000;5.874;2022-12-18T06:33:33;46.28;;;43.55;;
11531;SDS011;5822;51.000;5.874;2022-12-18T06:36:00;48.30;;;45.50;;
11531;SDS011;5822;51.000;5.874;2022-12-18T06:38:27;55.72;;;52.70;;
11531;SDS011;5822;51.000;5.874;2022-12-18T06:40:52;76.40;;;72.47;;
11531;SDS011;5822;51.000;5.874;2022-12-18T06:43:18;68.35;;;64.68;;
11531;SDS011;5822;51.000;5.874;2022-12-18T06:45:44;63.20;;;59.83;;
11531;SDS011;5822;51.000;5.874;2022-12-18T06:48:09;65.27;;;61.80;;
11531;SDS011;5822;51.000;5.874;2022-12-18T06:50:35;69.75;;;66.05;;
11531;SDS011;5822;51.000;5.874;2022-12-18T06:53:00;50.80;;;48.10;;
11531;SDS011;5822;51.000;5.874;2022-12-18T06:55:26;54.40;;;51.40;;
11531;SDS011;5822;51.000;5.874;2022-12-18T06:57:52;54.90;;;52.00;;
11531;SDS011;5822;51.000;5.874;2022-12-18T07:00:17;55.88;;;52.80;;
11531;SDS011;5822;51.000;5.874;2022-12-18T07:02:43;64.55;;;61.10;;
11531;SDS011;5822;51.000;5.874;2022-12-18T07:05:09;71.47;;;67.90;;
11531;SDS011;5822;51.000;5.874;2022-12-18T07:07:34;71.88;;;68.20;;
11531;SDS011;5822;51.000;5.874;2022-12-18T07:10:00;61.47;;;58.27;;
11531;SDS011;5822;51.000;5.874;2022-12-18T07:12:28;58.27;;;55.27;;
11531;SDS011;5822;51.000;5.874;2022-12-18T07:14:54;46.28;;;43.63;;
11531;SDS011;5822;51.000;5.874;2022-12-18T07:17:20;43.35;;;40.75;;
11531;SDS011;5822;51.000;5.874;2022-12-18T07:19:45;52.30;;;49.50;;
11531;SDS011;5822;51.000;5.874;2022-12-18T07:22:11;42.23;;;39.73;;
11531;SDS011;5822;51.000;5.874;2022-12-18T07:24:36;54.97;;;52.08;;
11531;SDS011;5822;51.000;5.874;2022-12-18T07:27:02;66.63;;;63.03;;
11531;SDS011;5822;51.000;5.874;2022-12-18T07:29:28;66.13;;;62.73;;
11531;SDS011;5822;51.000;5.874;2022-12-18T07:31:53;71.50;;;67.90;;
11531;SDS011;5822;51.000;5.874;2022-12-18T07:34:19;74.55;;;70.85;;
11531;SDS011;5822;51.000;5.874;2022-12-18T07:36:45;74.10;;;70.33;;
11531;SDS011;5822;51.000;5.874;2022-12-18T07:39:10;65.20;;;61.63;;
11531;SDS011;5822;51.000;5.874;2022-12-18T07:41:36;56.13;;;53.15;;
11531;SDS011;5822;51.000;5.874;2022-12-18T07:44:02;54.27;;;51.37;;
11531;SDS011;5822;51.000;5.874;2022-12-18T07:46:27;44.42;;;41.83;;
11531;SDS011;5822;51.000;5.874;2022-12-18T07:48:53;47.07;;;44.47;;
11531;SDS011;5822;51.000;5.874;2022-12-18T07:51:19;58.20;;;55.00;;
11531;SDS011;5822;51.000;5.874;2022-12-18T07:53:44;61.25;;;58.05;;
11531;SDS011;5822;51.000;5.874;2022-12-18T07:56:11;70.87;;;67.23;;
11531;SDS011;5822;51.000;5.874;2022-12-18T07:58:37;73.38;;;69.57;;
11531;SDS011;5822;51.000;5.874;2022-12-18T08:01:06;47.85;;;45.05;;
11531;SDS011;5822;51.000;5.874;2022-12-18T08:03:34;42.50;;;40.00;;
11531;SDS011;5822;51.000;5.874;2022-12-18T08:06:04;47.25;;;44.35;;
11531;SDS011;5822;51.000;5.874;2022-12-18T08:08:31;50.30;;;47.50;;
11531;SDS011;5822;51.000;5.874;2022-12-18T08:10:57;72.18;;;68.28;;
11531;SDS011;5822;51.000;5.874;2022-12-18T08:13:23;68.63;;;65.03;;
11531;SDS011;5822;51.000;5.874;2022-12-18T08:15:59;71.68;;;67.88;;
11531;SDS011;5822;51.000;5.874;2022-12-18T08:18:32;74.10;;;70.20;;
11531;SDS011;5822;51.000;5.874;2022-12-18T08:21:06;70.35;;;66.65;;
11531;SDS011;5822;51.000;5.874;2022-12-18T08:23:40;70.60;;;66.80;;
11531;SDS011;5822;51.000;5.874;2022-12-18T08:26:06;63.37;;;60.00;;
11531;SDS011;5822;51.000;5.874;2022-12-18T08:28:32;39.92;;;37.42;;
11531;SDS011;5822;51.000;5.874;2022-12-18T08:30:58;39.35;;;36.90;;
11531;SDS011;5822;51.000;5.874;2022-12-18T08:33:25;43.33;;;40.83;;
11531;SDS011;5822;51.000;5.874;2022-12-18T08:35:51;54.45;;;51.45;;
11531;SDS011;5822;51.000;5.874;2022-12-18T08:38:17;55.90;;;52.90;;
11531;SDS011;5822;51.000;5.874;2022-12-18T08:40:42;56.60;;;53.50;;
11531;SDS011;5822;51.000;5.874;2022-12-18T08:43:11;57.63;;;54.53;;
11531;SDS011;5822;51.000;5.874;2022-12-18T08:45:56;44.58;;;41.95;;
11531;SDS011;5822;51.000;5.874;2022-12-18T08:48:22;60.83;;;57.53;;
11531;SDS011;5822;51.000;5.874;2022-12-18T08:50:54;62.87;;;59.47;;
11531;SDS011;5822;51.000;5.874;2022-12-18T08:53:20;59.95;;;56.65;;
11531;SDS011;5822;51.000;5.874;2022-12-18T08:55:46;64.37;;;61.07;;
11531;SDS011;5822;51.000;5.874;2022-12-18T08:58:11;69.17;;;65.47;;
11531;SDS011;5822;51.000;5.874;2022-12-18T09:00:37;69.35;;;65.65;;
11531;SDS011;5822;51.000;5.874;2022-12-18T09:03:02;60.40;;;57.20;;
11531;SDS011;5822;51.000;5.874;2022-12-18T09:05:28;58.37;;;55.23;;
11531;SDS011;5822;51.000;5.874;2022-12-18T09:07:55;59.63;;;56.45;;
11531;SDS011;5822;51.000;5.874;2022-12-18T09:10:21;54.88;;;51.95;;
11531;SDS011;5822;51.000;5.874;2022-12-18T09:12:47;59.20;;;56.10;;
11531;SDS011;5822;51.000;5.874;2022-12-18T09:15:12;56.95;;;53.95;;
11531;SDS011;5822;51.000;5.874;2022-12-18T09:17:38;55.13;;;52.15;;
11531;SDS011;5822;51.000;5.874;2022-12-18T09:20:03;45.20;;;42.63;;
11531;SDS011;5822;51.000;5.874;2022-12-18T09:22:30;40.65;;;38.25;;
11531;SDS011;5822;51.000;5.874;2022-12-18T09:24:55;43.15;;;40.75;;
11531;SDS011;5822;51.000;5.874;2022-12-18T09:27:21;51.67;;;48.88;;
11531;SDS011;5822;51.000;5.874;2022-12-18T09:29:47;60.13;;;56.83;;
11531;SDS011;5822;51.000;5.874;2022-12-18T09:32:12;64.10;;;60.67;;
11531;SDS011;5822;51.000;5.874;2022-12-18T09:34:38;63.80;;;60.30;;
11531;SDS011;5822;51.000;5.874;2022-12-18T09:37:03;61.38;;;58.17;;
11531;SDS011;5822;51.000;5.874;2022-12-18T09:39:29;68.28;;;64.68;;
11531;SDS011;5822;51.000;5.874;2022-12-18T09:41:55;45.27;;;42.67;;
11531;SDS011;5822;51.000;5.874;2022-12-18T09:44:29;43.22;;;40.53;;
11531;SDS011;5822;51.000;5.874;2022-12-18T09:47:09;40.03;;;37.72;;
11531;SDS011;5822;51.000;5.874;2022-12-18T09:49:50;44.67;;;42.27;;
11531;SDS011;5822;51.000;5.874;2022-12-18T09:52:30;54.63;;;51.83;;
11531;SDS011;5822;51.000;5.874;2022-12-18T09:57:47;51.33;;;48.53;;
11531;SDS011;5822;51.000;5.874;2022-12-18T10:00:17;53.58;;;50.75;;
11531;SDS011;5822;51.000;5.874;2022-12-18T10:02:46;53.63;;;50.72;;
11531;SDS011;5822;51.000;5.874;2022-12-18T10:05:33;54.13;;;51.22;;
11531;SDS011;5822;51.000;5.874;2022-12-18T10:18:50;51.30;;;48.50;;
11531;SDS011;5822;51.000;5.874;2022-12-18T10:21:55;47.87;;;45.27;;
11531;SDS011;5822;51.000;5.874;2022-12-18T10:26:59;42.65;;;40.30;;
11531;SDS011;5822;51.000;5.874;2022-12-18T10:29:37;55.55;;;52.65;;
11531;SDS011;5822;51.000;5.874;2022-12-18T10:32:03;56.08;;;53.08;;
11531;SDS011;5822;51.000;5.874;2022-12-18T10:34:28;59.90;;;56.73;;
11531;SDS011;5822;51.000;5.874;2022-12-18T10:36:55;56.47;;;53.38;;
11531;SDS011;5822;51.000;5.874;2022-12-18T10:39:22;57.27;;;54.27;;
11531;SDS011;5822;51.000;5.874;2022-12-18T10:41:51;51.72;;;48.92;;
11531;SDS011;5822;51.000;5.874;2022-12-18T10:44:18;51.72;;;48.92;;
11531;SDS011;5822;51.000;5.874;2022-12-18T10:46:46;55.90;;;52.90;;
11531;SDS011;5822;51.000;5.874;2022-12-18T10:49:32;55.72;;;52.88;;
11531;SDS011;5822;51.000;5.874;2022-12-18T10:52:17;54.78;;;51.97;;
11531;SDS011;5822;51.000;5.874;2022-12-18T10:54:54;53.77;;;50.97;;
11531;SDS011;5822;51.000;5.874;2022-12-18T11:03:07;53.08;;;50.28;;
11531;SDS011;5822;51.000;5.874;2022-12-18T11:06:03;50.80;;;48.10;;
11531;SDS011;5822;51.000;5.874;2022-12-18T11:08:39;50.00;;;47.40;;
11531;SDS011;5822;51.000;5.874;2022-12-18T11:11:19;52.33;;;49.63;;
11531;SDS011;5822;51.000;5.874;2022-12-18T11:13:55;57.40;;;54.58;;
11531;SDS011;5822;51.000;5.874;2022-12-18T11:16:29;50.37;;;47.77;;
11531;SDS011;5822;51.000;5.874;2022-12-18T11:19:13;39.97;;;37.67;;
11531;SDS011;5822;51.000;5.874;2022-12-18T11:21:59;41.72;;;39.33;;
11531;SDS011;5822;51.000;5.874;2022-12-18T11:24:28;42.33;;;39.95;;
11531;SDS011;5822;51.000;5.874;2022-12-18T11:27:01;61.75;;;58.55;;
11531;SDS011;5822;51.000;5.874;2022-12-18T11:29:33;64.88;;;61.55;;
11531;SDS011;5822;51.000;5.874;2022-12-18T11:32:13;59.45;;;56.25;;
11531;SDS011;5822;51.000;5.874;2022-12-18T11:35:10;58.03;;;54.95;;
11531;SDS011;5822;51.000;5.874;2022-12-18T11:37:43;59.07;;;55.93;;
11531;SDS011;5822;51.000;5.874;2022-12-18T11:40:19;60.70;;;57.38;;
11531;SDS011;5822;51.000;5.874;2022-12-18T11:42:52;53.38;;;50.47;;
11531;SDS011;5822;51.000;5.874;2022-12-18T11:45:24;45.78;;;43.28;;
11531;SDS011;5822;51.000;5.874;2022-12-18T11:47:57;39.63;;;37.33;;
11531;SDS011;5822;51.000;5.874;2022-12-18T11:51:01;41.60;;;39.30;;
11531;SDS011;5822;51.000;5.874;2022-12-18T11:53:21;40.95;;;38.65;;
11531;SDS011;5822;51.000;5.874;2022-12-18T11:58:31;51.33;;;48.63;;
11531;SDS011;5822;51.000;5.874;2022-12-18T12:01:07;44.72;;;42.33;;
11531;SDS011;5822;51.000;5.874;2022-12-18T12:03:49;40.03;;;37.72;;
11531;SDS011;5822;51.000;5.874;2022-12-18T12:12:17;37.38;;;35.28;;
11531;SDS011;5822;51.000;5.874;2022-12-18T12:17:54;35.95;;;33.95;;
11531;SDS011;5822;51.000;5.874;2022-12-18T12:23:16;41.50;;;39.30;;
11531;SDS011;5822;51.000;5.874;2022-12-18T12:28:42;33.70;;;31.80;;
11531;SDS011;5822;51.000;5.874;2022-12-18T12:40:19;32.75;;;30.75;;
11531;SDS011;5822;51.000;5.874;2022-12-18T12:42:49;33.40;;;31.40;;
11531;SDS011;5822;51.000;5.874;2022-12-18T12:48:05;37.50;;;35.30;;
11531;SDS011;5822;51.000;5.874;2022-12-18T12:50:38;37.33;;;35.13;;
11531;SDS011;5822;51.000;5.874;2022-12-18T12:53:06;36.85;;;34.75;;
11531;SDS011;5822;51.000;5.874;2022-12-18T12:55:36;36.72;;;34.63;;
11531;SDS011;5822;51.000;5.874;2022-12-18T12:58:26;33.45;;;31.55;;
11531;SDS011;5822;51.000;5.874;2022-12-18T13:03:35;35.03;;;33.03;;
11531;SDS011;5822;51.000;5.874;2022-12-18T13:09:15;25.53;;;23.83;;
11531;SDS011;5822;51.000;5.874;2022-12-18T13:14:38;27.20;;;25.40;;
11531;SDS011;5822;51.000;5.874;2022-12-18T13:17:15;32.10;;;30.17;;
11531;SDS011;5822;51.000;5.874;2022-12-18T13:19:41;33.63;;;31.63;;
11531;SDS011;5822;51.000;5.874;2022-12-18T13:22:24;34.10;;;32.10;;
11531;SDS011;5822;51.000;5.874;2022-12-18T13:24:54;36.95;;;34.85;;
11531;SDS011;5822;51.000;5.874;2022-12-18T13:33:44;35.95;;;33.85;;
11531;SDS011;5822;51.000;5.874;2022-12-18T13:35:53;37.35;;;35.20;;
11531;SDS011;5822;51.000;5.874;2022-12-18T13:40:57;39.33;;;37.00;;
11531;SDS011;5822;51.000;5.874;2022-12-18T13:46:24;30.95;;;29.05;;
11531;SDS011;5822;51.000;5.874;2022-12-18T13:51:42;28.50;;;26.60;;
11531;SDS011;5822;51.000;5.874;2022-12-18T13:57:05;32.45;;;30.45;;
11531;SDS011;5822;51.000;5.874;2022-12-18T13:59:49;26.83;;;25.02;;
11531;SDS011;5822;51.000;5.874;2022-12-18T14:02:22;29.97;;;27.97;;
11531;SDS011;5822;51.000;5.874;2022-12-18T14:04:50;32.85;;;30.67;;
11531;SDS011;5822;51.000;5.874;2022-12-18T14:07:17;34.42;;;32.33;;
11531;SDS011;5822;51.000;5.874;2022-12-18T14:12:25;40.90;;;38.60;;
11531;SDS011;5822;51.000;5.874;2022-12-18T14:15:22;45.45;;;42.85;;
11531;SDS011;5822;51.000;5.874;2022-12-18T14:17:55;42.70;;;40.30;;
11531;SDS011;5822;51.000;5.874;2022-12-18T14:20:22;41.72;;;39.42;;
11531;SDS011;5822;51.000;5.874;2022-12-18T14:22:50;40.47;;;38.03;;
11531;SDS011;5822;51.000;5.874;2022-12-18T14:25:23;43.05;;;40.45;;
11531;SDS011;5822;51.000;5.874;2022-12-18T14:27:51;37.83;;;35.47;;
11531;SDS011;5822;51.000;5.874;2022-12-18T14:30:24;32.22;;;30.13;;
11531;SDS011;5822;51.000;5.874;2022-12-18T14:33:04;32.50;;;30.50;;
11531;SDS011;5822;51.000;5.874;2022-12-18T14:35:34;30.58;;;28.48;;
11531;SDS011;5822;51.000;5.874;2022-12-18T14:38:36;31.75;;;29.75;;
11531;SDS011;5822;51.000;5.874;2022-12-18T14:41:04;34.40;;;32.20;;
11531;SDS011;5822;51.000;5.874;2022-12-18T14:43:36;34.47;;;32.38;;
11531;SDS011;5822;51.000;5.874;2022-12-18T14:46:04;39.45;;;37.15;;
11531;SDS011;5822;51.000;5.874;2022-12-18T14:48:50;41.10;;;38.70;;
11531;SDS011;5822;51.000;5.874;2022-12-18T14:51:26;40.60;;;38.40;;
11531;SDS011;5822;51.000;5.874;2022-12-18T14:56:43;33.45;;;31.45;;
11531;SDS011;5822;51.000;5.874;2022-12-18T15:04:26;38.00;;;35.75;;
11531;SDS011;5822;51.000;5.874;2022-12-18T15:07:17;40.97;;;38.67;;
11531;SDS011;5822;51.000;5.874;2022-12-18T15:10:00;33.05;;;30.95;;
11531;SDS011;5822;51.000;5.874;2022-12-18T15:12:39;34.00;;;31.92;;
11531;SDS011;5822;51.000;5.874;2022-12-18T15:18:01;31.17;;;29.08;;
11531;SDS011;5822;51.000;5.874;2022-12-18T15:20:39;32.35;;;30.25;;
11531;SDS011;5822;51.000;5.874;2022-12-18T15:23:18;35.30;;;33.20;;
11531;SDS011;5822;51.000;5.874;2022-12-18T15:26:13;36.38;;;34.08;;
11531;SDS011;5822;51.000;5.874;2022-12-18T15:33:42;46.70;;;43.90;;
11531;SDS011;5822;51.000;5.874;2022-12-18T15:36:12;41.33;;;38.83;;
11531;SDS011;5822;51.000;5.874;2022-12-18T15:38:39;40.27;;;37.90;;
11531;SDS011;5822;51.000;5.874;2022-12-18T15:41:05;40.55;;;38.15;;
11531;SDS011;5822;51.000;5.874;2022-12-18T15:43:31;43.75;;;41.08;;
11531;SDS011;5822;51.000;5.874;2022-12-18T15:46:18;43.05;;;40.45;;
11531;SDS011;5822;51.000;5.874;2022-12-18T15:48:47;41.47;;;38.97;;
11531;SDS011;5822;51.000;5.874;2022-12-18T15:51:31;30.00;;;27.90;;
11531;SDS011;5822;51.000;5.874;2022-12-18T15:53:59;29.92;;;27.83;;
11531;SDS011;5822;51.000;5.874;2022-12-18T15:56:28;30.30;;;28.00;;
11531;SDS011;5822;51.000;5.874;2022-12-18T15:59:13;29.90;;;27.80;;
11531;SDS011;5822;51.000;5.874;2022-12-18T16:01:41;32.40;;;30.20;;
11531;SDS011;5822;51.000;5.874;2022-12-18T16:04:11;37.60;;;35.10;;
11531;SDS011;5822;51.000;5.874;2022-12-18T16:06:38;36.20;;;33.90;;
11531;SDS011;5822;51.000;5.874;2022-12-18T16:09:04;38.20;;;35.87;;
11531;SDS011;5822;51.000;5.874;2022-12-18T16:11:31;39.97;;;37.58;;
11531;SDS011;5822;51.000;5.874;2022-12-18T16:16:51;39.60;;;37.25;;
11531;SDS011;5822;51.000;5.874;2022-12-18T16:19:21;40.15;;;37.67;;
11531;SDS011;5822;51.000;5.874;2022-12-18T16:21:47;40.90;;;38.40;;
11531;SDS011;5822;51.000;5.874;2022-12-18T16:24:15;42.57;;;39.90;;
11531;SDS011;5822;51.000;5.874;2022-12-18T16:26:48;40.75;;;38.28;;
11531;SDS011;5822;51.000;5.874;2022-12-18T16:29:16;34.85;;;32.55;;
11531;SDS011;5822;51.000;5.874;2022-12-18T16:31:43;38.25;;;35.75;;
11531;SDS011;5822;51.000;5.874;2022-12-18T16:34:09;39.28;;;36.67;;
11531;SDS011;5822;51.000;5.874;2022-12-18T16:36:36;36.42;;;34.05;;
11531;SDS011;5822;51.000;5.874;2022-12-18T16:39:03;30.92;;;28.65;;
11531;SDS011;5822;51.000;5.874;2022-12-18T16:41:28;30.05;;;27.95;;
11531;SDS011;5822;51.000;5.874;2022-12-18T16:43:57;29.95;;;27.85;;
11531;SDS011;5822;51.000;5.874;2022-12-18T16:46:26;32.17;;;29.98;;
11531;SDS011;5822;51.000;5.874;2022-12-18T16:48:52;40.90;;;38.20;;
11531;SDS011;5822;51.000;5.874;2022-12-18T16:51:18;48.78;;;45.88;;
11531;SDS011;5822;51.000;5.874;2022-12-18T16:53:43;47.20;;;44.40;;
11531;SDS011;5822;51.000;5.874;2022-12-18T16:56:09;42.92;;;40.45;;
11531;SDS011;5822;51.000;5.874;2022-12-18T16:58:34;44.33;;;41.55;;
11531;SDS011;5822;51.000;5.874;2022-12-18T17:01:00;45.93;;;43.13;;
11531;SDS011;5822;51.000;5.874;2022-12-18T17:03:26;43.67;;;40.97;;
11531;SDS011;5822;51.000;5.874;2022-12-18T17:05:51;45.77;;;42.87;;
11531;SDS011;5822;51.000;5.874;2022-12-18T17:08:17;41.00;;;38.40;;
11531;SDS011;5822;51.000;5.874;2022-12-18T17:10:42;38.70;;;36.00;;